Time,TemperatureF,DewpointF,PressureIn,WindDirection,WindDirectionDegrees,WindSpeedMPH,WindSpeedGustMPH,Humidity,HourlyPrecipIn,Conditions,Clouds,dailyrainin,SoftwareType,DateUTC
2013-01-10 00:00:00,39.4,23.7,29.91,NW,311,3.5,0.0,53,0.00,CLR,,0.00,WeatherDisplay:10.37,2013-01-10 05:00:00,
2013-01-10 00:01:00,39.2,23.5,29.91,NW,311,2.3,0.0,53,0.00,CLR,,0.00,WeatherDisplay:10.37,2013-01-10 05:01:00,
2013-01-10 00:03:00,39.2,23.5,29.91,NNW,327,5.8,0.0,53,0.00,CLR,,0.00,WeatherDisplay:10.37,2013-01-10 05:03:00,
2013-01-10 00:08:00,39.0,23.3,29.91,WNW,300,3.5,3.6,53,0.00,CLR,,0.00,WeatherDisplay:10.37,2013-01-10 05:08:00,
2013-01-10 00:13:00,39.0,24.6,29.91,NW,319,2.3,0.0,56,0.00,CLR,,0.00,WeatherDisplay:10.37,2013-01-10 05:13:00,
2013-01-10 00:18:00,39.0,24.6,29.91,NW,307,3.5,0.0,56,0.00,CLR,,0.00,WeatherDisplay:10.37,2013-01-10 05:18:00,
2013-01-10 00:23:00,39.0,24.6,29.91,WNW,297,3.5,3.5,56,0.00,CLR,,0.00,WeatherDisplay:10.37,2013-01-10 05:23:00,
2013-01-10 00:28:00,39.0,24.6,29.91,NW,307,5.4,5.4,56,0.00,CLR,,0.00,WeatherDisplay:10.37,2013-01-10 05:28:00,
2013-01-10 00:33:00,39.0,24.6,29.91,WNW,295,3.6,3.6,56,0.00,CLR,,0.00,WeatherDisplay:10.37,2013-01-10 05:33:00,
2013-01-10 00:38:00,38.8,24.5,29.91,WNW,289,2.3,0.0,56,0.00,CLR,,0.00,WeatherDisplay:10.37,2013-01-10 05:38:00,
2013-01-10 00:43:00,38.7,24.3,29.91,NW,319,0.0,0.0,56,0.00,CLR,,0.00,WeatherDisplay:10.37,2013-01-10 05:43:00,
2013-01-10 00:48:00,38.7,24.3,29.91,NW,310,3.5,0.0,56,0.00,CLR,,0.00,WeatherDisplay:10.37,2013-01-10 05:48:00,
2013-01-10 00:53:00,38.7,24.3,29.91,NW,310,0.0,0.0,56,0.00,CLR,,0.00,WeatherDisplay:10.37,2013-01-10 05:53:00,
2013-01-10 00:58:00,38.7,24.3,29.91,North,353,0.0,0.0,56,0.00,CLR,,0.00,WeatherDisplay:10.37,2013-01-10 05:58:00,
2013-01-10 01:03:00,38.7,24.3,29.91,NW,311,3.5,3.5,56,0.00,CLR,,0.00,WeatherDisplay:10.37,2013-01-10 06:03:00,
2013-01-10 01:08:00,38.8,24.5,29.91,NW,313,3.5,3.5,56,0.00,CLR,,0.00,WeatherDisplay:10.37,2013-01-10 06:08:00,
2013-01-10 01:13:00,38.8,24.5,29.91,NNW,345,4.6,4.6,56,0.00,CLR,,0.00,WeatherDisplay:10.37,2013-01-10 06:13:00,
2013-01-10 01:18:00,38.7,24.3,29.91,NNW,344,0.0,0.0,56,0.00,CLR,,0.00,WeatherDisplay:10.37,2013-01-10 06:18:00,
2013-01-10 01:23:00,38.5,24.1,29.91,NNW,342,2.3,0.0,56,0.00,CLR,,0.00,WeatherDisplay:10.37,2013-01-10 06:23:00,
2013-01-10 01:28:00,38.5,24.1,29.91,NW,304,0.0,0.0,56,0.00,CLR,,0.00,WeatherDisplay:10.37,2013-01-10 06:28:00,
2013-01-10 01:33:00,38.3,24.0,29.91,NW,304,0.0,0.0,56,0.00,CLR,,0.00,WeatherDisplay:10.37,2013-01-10 06:33:00,
2013-01-10 01:38:00,38.1,23.8,29.91,NW,307,0.0,0.0,56,0.00,CLR,,0.00,WeatherDisplay:10.37,2013-01-10 06:38:00,
2013-01-10 01:43:00,38.1,23.8,29.91,NNW,331,2.3,0.0,56,0.00,CLR,,0.00,WeatherDisplay:10.37,2013-01-10 06:43:00,
2013-01-10 01:48:00,37.9,24.9,29.91,NNW,331,0.0,0.0,59,0.00,CLR,,0.00,WeatherDisplay:10.37,2013-01-10 06:48:00,
2013-01-10 01:53:00,37.4,25.2,29.91,NNW,331,0.0,0.0,61,0.00,CLR,,0.00,WeatherDisplay:10.37,2013-01-10 06:53:00,
2013-01-10 01:58:00,36.9,23.9,29.91,NNW,331,0.0,0.0,59,0.00,CLR,,0.00,WeatherDisplay:10.37,2013-01-10 06:58:00,
2013-01-10 02:03:00,36.3,24.5,29.91,NNW,331,0.0,0.0,62,0.00,CLR,,0.00,WeatherDisplay:10.37,2013-01-10 07:03:00,
2013-01-10 02:08:00,36.0,24.6,29.91,NNW,331,0.0,0.0,63,0.00,CLR,,0.00,WeatherDisplay:10.37,2013-01-10 07:08:00,
2013-01-10 02:13:00,35.8,24.4,29.91,NNW,331,0.0,0.0,63,0.00,CLR,,0.00,WeatherDisplay:10.37,2013-01-10 07:13:00,
2013-01-10 02:18:00,36.0,25.0,29.91,NNW,331,0.0,0.0,64,0.00,CLR,,0.00,WeatherDisplay:10.37,2013-01-10 07:18:00,
2013-01-10 02:23:00,35.4,24.1,29.91,NNW,331,0.0,0.0,63,0.00,CLR,,0.00,WeatherDisplay:10.37,2013-01-10 07:23:00,
2013-01-10 02:28:00,34.9,23.9,29.91,NNW,331,0.0,0.0,64,0.00,CLR,,0.00,WeatherDisplay:10.37,2013-01-10 07:28:00,
2013-01-10 02:33:00,34.7,24.1,29.91,NNW,331,0.0,0.0,65,0.00,CLR,,0.00,WeatherDisplay:10.37,2013-01-10 07:33:00,
2013-01-10 02:38:00,34.3,24.5,29.91,NNW,331,0.0,0.0,67,0.00,CLR,,0.00,WeatherDisplay:10.37,2013-01-10 07:38:00,
2013-01-10 02:44:00,34.0,24.5,29.91,NNW,331,0.0,0.0,68,0.00,CLR,,0.00,WeatherDisplay:10.37,2013-01-10 07:44:00,
2013-01-10 02:49:00,33.6,25.6,29.91,NNW,331,0.0,0.0,72,0.00,CLR,,0.00,WeatherDisplay:10.37,2013-01-10 07:49:00,
2013-01-10 02:54:00,33.4,25.4,29.91,NNW,331,0.0,0.0,72,0.00,CLR,,0.00,WeatherDisplay:10.37,2013-01-10 07:54:00,
2013-01-10 02:59:00,33.3,25.5,29.91,NNW,331,0.0,0.0,73,0.00,CLR,,0.00,WeatherDisplay:10.37,2013-01-10 07:59:00,
2013-01-10 03:04:00,33.3,25.9,29.91,NNW,331,0.0,0.0,74,0.00,CLR,,0.00,WeatherDisplay:10.37,2013-01-10 08:04:00,
2013-01-10 03:09:00,33.3,25.5,29.91,NNW,331,0.0,0.0,73,0.00,CLR,,0.00,WeatherDisplay:10.37,2013-01-10 08:09:00,
2013-01-10 03:14:00,33.3,25.9,29.91,NNW,331,0.0,0.0,74,0.00,CLR,,0.00,WeatherDisplay:10.37,2013-01-10 08:14:00,
2013-01-10 03:19:00,33.3,26.2,29.91,NNW,331,0.0,0.0,75,0.00,CLR,,0.00,WeatherDisplay:10.37,2013-01-10 08:19:00,
2013-01-10 03:24:00,33.3,25.9,29.91,NNW,331,0.0,0.0,74,0.00,CLR,,0.00,WeatherDisplay:10.37,2013-01-10 08:24:00,
2013-01-10 03:29:00,33.4,26.0,29.91,NNW,331,0.0,0.0,74,0.00,CLR,,0.00,WeatherDisplay:10.37,2013-01-10 08:29:00,
2013-01-10 03:34:00,33.6,26.2,29.91,NNW,331,0.0,0.0,74,0.00,CLR,,0.00,WeatherDisplay:10.37,2013-01-10 08:34:00,
2013-01-10 03:39:00,33.8,26.1,29.91,NNW,331,0.0,0.0,73,0.00,CLR,,0.00,WeatherDisplay:10.37,2013-01-10 08:39:00,
2013-01-10 03:44:00,33.8,26.1,29.91,NNW,331,0.0,0.0,73,0.00,CLR,,0.00,WeatherDisplay:10.37,2013-01-10 08:44:00,
2013-01-10 03:49:00,34.0,26.2,29.91,NNW,331,0.0,0.0,73,0.00,CLR,,0.00,WeatherDisplay:10.37,2013-01-10 08:49:00,
2013-01-10 03:54:00,34.0,26.2,29.91,NNW,331,0.0,0.0,73,0.00,CLR,,0.00,WeatherDisplay:10.37,2013-01-10 08:54:00,
2013-01-10 03:59:00,33.6,25.9,29.91,NNW,331,0.0,0.0,73,0.00,CLR,,0.00,WeatherDisplay:10.37,2013-01-10 08:59:00,
2013-01-10 04:04:00,33.8,26.1,29.91,NNW,331,0.0,0.0,73,0.00,CLR,,0.00,WeatherDisplay:10.37,2013-01-10 09:04:00,
2013-01-10 04:09:00,34.0,26.2,29.91,NNW,331,0.0,0.0,73,0.00,CLR,,0.00,WeatherDisplay:10.37,2013-01-10 09:09:00,
2013-01-10 04:14:00,34.0,25.9,29.91,NNW,331,0.0,0.0,72,0.00,CLR,,0.00,WeatherDisplay:10.37,2013-01-10 09:14:00,
2013-01-10 04:19:00,34.2,26.1,29.91,NNW,331,0.0,0.0,72,0.00,CLR,,0.00,WeatherDisplay:10.37,2013-01-10 09:19:00,
2013-01-10 04:24:00,34.0,26.2,29.91,NNW,331,0.0,0.0,73,0.00,CLR,,0.00,WeatherDisplay:10.37,2013-01-10 09:24:00,
2013-01-10 04:29:00,34.0,26.2,29.91,NNW,331,0.0,0.0,73,0.00,CLR,,0.00,WeatherDisplay:10.37,2013-01-10 09:29:00,
2013-01-10 04:34:00,34.2,26.1,29.91,NNW,331,0.0,0.0,72,0.00,CLR,,0.00,WeatherDisplay:10.37,2013-01-10 09:34:00,
2013-01-10 04:39:00,34.5,25.7,29.91,WNW,299,2.3,2.3,70,0.00,CLR,,0.00,WeatherDisplay:10.37,2013-01-10 09:39:00,
2013-01-10 04:44:00,34.5,26.1,29.91,WNW,299,0.0,0.0,71,0.00,CLR,,0.00,WeatherDisplay:10.37,2013-01-10 09:44:00,
2013-01-10 04:49:00,34.7,25.9,29.91,NNW,332,2.3,0.0,70,0.00,CLR,,0.00,WeatherDisplay:10.37,2013-01-10 09:49:00,
2013-01-10 04:54:00,34.9,25.4,29.91,NNW,332,0.0,0.0,68,0.00,CLR,,0.00,WeatherDisplay:10.37,2013-01-10 09:54:00,
2013-01-10 04:59:00,34.9,25.0,29.91,NNW,332,0.0,0.0,67,0.00,CLR,,0.00,WeatherDisplay:10.37,2013-01-10 09:59:00,
2013-01-10 05:04:00,35.1,25.2,29.91,NNW,332,0.0,0.0,67,0.00,CLR,,0.00,WeatherDisplay:10.37,2013-01-10 10:04:00,
2013-01-10 05:09:00,35.1,25.2,29.91,NNW,332,0.0,0.0,67,0.00,CLR,,0.00,WeatherDisplay:10.37,2013-01-10 10:09:00,
2013-01-10 05:14:00,34.9,25.0,29.91,NNW,332,0.0,0.0,67,0.00,CLR,,0.00,WeatherDisplay:10.37,2013-01-10 10:14:00,
2013-01-10 05:19:00,34.9,25.0,29.91,NNW,332,0.0,0.0,67,0.00,CLR,,0.00,WeatherDisplay:10.37,2013-01-10 10:19:00,
2013-01-10 05:24:00,34.9,25.4,29.91,NNW,332,0.0,0.0,68,0.00,CLR,,0.00,WeatherDisplay:10.37,2013-01-10 10:24:00,
2013-01-10 05:29:00,34.7,25.2,29.91,NNW,332,0.0,0.0,68,0.00,CLR,,0.00,WeatherDisplay:10.37,2013-01-10 10:29:00,
2013-01-10 05:34:00,34.5,25.7,29.91,NNW,332,0.0,0.0,70,0.00,CLR,,0.00,WeatherDisplay:10.37,2013-01-10 10:34:00,
2013-01-10 05:39:00,34.3,25.6,29.91,NNW,332,0.0,0.0,70,0.00,CLR,,0.00,WeatherDisplay:10.37,2013-01-10 10:39:00,
2013-01-10 05:44:00,34.2,26.1,29.91,NNW,332,0.0,0.0,72,0.00,CLR,,0.00,WeatherDisplay:10.37,2013-01-10 10:44:00,
2013-01-10 05:49:00,33.8,25.7,29.91,NNW,332,0.0,0.0,72,0.00,CLR,,0.00,WeatherDisplay:10.37,2013-01-10 10:49:00,
2013-01-10 05:54:00,33.6,25.6,29.91,NNW,332,0.0,0.0,72,0.00,CLR,,0.00,WeatherDisplay:10.37,2013-01-10 10:54:00,
2013-01-10 05:59:00,33.4,25.7,29.91,NNW,332,0.0,0.0,73,0.00,CLR,,0.00,WeatherDisplay:10.37,2013-01-10 10:59:00,
2013-01-10 06:04:00,33.1,25.7,29.91,NNW,332,0.0,0.0,74,0.00,CLR,,0.00,WeatherDisplay:10.37,2013-01-10 11:04:00,
2013-01-10 06:09:00,32.9,25.5,29.91,NNW,332,0.0,0.0,74,0.00,CLR,,0.00,WeatherDisplay:10.37,2013-01-10 11:09:00,
2013-01-10 06:14:00,33.1,25.7,29.91,NNW,332,0.0,0.0,74,0.00,CLR,,0.00,WeatherDisplay:10.37,2013-01-10 11:14:00,
2013-01-10 06:19:00,33.1,25.7,29.91,NNW,332,0.0,0.0,74,0.00,CLR,,0.00,WeatherDisplay:10.37,2013-01-10 11:19:00,
2013-01-10 06:24:00,32.9,25.5,29.91,NNW,332,0.0,0.0,74,0.00,CLR,,0.00,WeatherDisplay:10.37,2013-01-10 11:24:00,
2013-01-10 06:29:00,32.7,25.3,29.91,NNW,332,0.0,0.0,74,0.00,CLR,,0.00,WeatherDisplay:10.37,2013-01-10 11:29:00,
2013-01-10 06:34:00,32.5,25.2,29.91,NNW,332,0.0,0.0,74,0.00,CLR,,0.00,WeatherDisplay:10.37,2013-01-10 11:34:00,
2013-01-10 06:39:00,32.5,25.2,29.91,NNW,332,0.0,0.0,74,0.00,CLR,,0.00,WeatherDisplay:10.37,2013-01-10 11:39:00,
2013-01-10 06:44:00,32.5,25.5,29.91,NNW,332,0.0,0.0,75,0.00,CLR,,0.00,WeatherDisplay:10.37,2013-01-10 11:44:00,
2013-01-10 06:49:00,32.5,25.5,29.91,NNW,332,0.0,0.0,75,0.00,CLR,,0.00,WeatherDisplay:10.37,2013-01-10 11:49:00,
2013-01-10 06:54:00,32.4,25.3,29.91,NNW,332,0.0,0.0,75,0.00,CLR,,0.00,WeatherDisplay:10.37,2013-01-10 11:54:00,
2013-01-10 06:59:00,32.2,25.8,29.91,NNW,332,0.0,0.0,77,0.00,CLR,,0.00,WeatherDisplay:10.37,2013-01-10 11:59:00,
2013-01-10 07:04:00,32.2,26.1,29.91,NNW,332,0.0,0.0,78,0.00,CLR,,0.00,WeatherDisplay:10.37,2013-01-10 12:04:00,
2013-01-10 07:09:00,32.2,26.1,29.91,NNW,332,0.0,0.0,78,0.00,CLR,,0.00,WeatherDisplay:10.37,2013-01-10 12:09:00,
2013-01-10 07:14:00,32.0,25.6,29.91,NNW,332,0.0,0.0,77,0.00,CLR,,0.00,WeatherDisplay:10.37,2013-01-10 12:14:00,
2013-01-10 07:19:00,31.6,24.9,29.91,NNW,332,0.0,0.0,76,0.00,CLR,,0.00,WeatherDisplay:10.37,2013-01-10 12:19:00,
2013-01-10 07:24:00,31.3,24.6,29.91,NNW,332,0.0,0.0,76,0.00,CLR,,0.00,WeatherDisplay:10.37,2013-01-10 12:24:00,
2013-01-10 07:29:00,30.9,24.6,29.91,NNW,332,0.0,0.0,77,0.00,CLR,,0.00,WeatherDisplay:10.37,2013-01-10 12:29:00,
2013-01-10 07:34:00,30.6,24.2,29.91,NNW,332,0.0,0.0,77,0.00,CLR,,0.00,WeatherDisplay:10.37,2013-01-10 12:34:00,
2013-01-10 07:39:00,30.2,23.9,29.91,NNW,332,0.0,0.0,77,0.00,CLR,,0.00,WeatherDisplay:10.37,2013-01-10 12:39:00,
2013-01-10 07:44:00,29.8,24.1,29.91,NNW,332,0.0,0.0,79,0.00,CLR,,0.00,WeatherDisplay:10.37,2013-01-10 12:44:00,
2013-01-10 07:49:00,29.8,24.4,29.91,NNW,332,0.0,0.0,80,0.00,CLR,,0.00,WeatherDisplay:10.37,2013-01-10 12:49:00,
2013-01-10 07:54:00,29.7,24.2,29.91,NNW,332,0.0,0.0,80,0.00,CLR,,0.00,WeatherDisplay:10.37,2013-01-10 12:54:00,
2013-01-10 07:59:00,29.7,24.5,29.91,NNW,332,0.0,0.0,81,0.00,CLR,,0.00,WeatherDisplay:10.37,2013-01-10 12:59:00,
2013-01-10 08:04:00,29.7,24.8,29.91,NNW,332,0.0,0.0,82,0.00,CLR,,0.00,WeatherDisplay:10.37,2013-01-10 13:04:00,
2013-01-10 08:09:00,30.0,26.1,29.91,NNW,332,0.0,0.0,85,0.00,CLR,,0.00,WeatherDisplay:10.37,2013-01-10 13:09:00,
2013-01-10 08:14:00,30.4,27.5,29.91,NNW,332,0.0,0.0,89,0.00,CLR,,0.00,WeatherDisplay:10.37,2013-01-10 13:14:00,
2013-01-10 08:19:00,30.6,27.4,29.91,NNW,332,0.0,0.0,88,0.00,CLR,,0.00,WeatherDisplay:10.37,2013-01-10 13:19:00,
2013-01-10 08:24:00,30.6,26.9,29.91,NNW,332,0.0,0.0,86,0.00,CLR,,0.00,WeatherDisplay:10.37,2013-01-10 13:24:00,
2013-01-10 08:29:00,30.7,26.8,29.91,NNW,332,0.0,0.0,85,0.00,CLR,,0.00,WeatherDisplay:10.37,2013-01-10 13:29:00,
2013-01-10 08:34:00,30.9,26.9,29.91,NNW,332,0.0,0.0,85,0.00,CLR,,0.00,WeatherDisplay:10.37,2013-01-10 13:34:00,
2013-01-10 08:39:00,31.3,27.0,29.91,NNW,332,0.0,0.0,84,0.00,CLR,,0.00,WeatherDisplay:10.37,2013-01-10 13:39:00,
2013-01-10 08:44:00,31.5,27.2,29.91,NNW,332,0.0,0.0,84,0.00,CLR,,0.00,WeatherDisplay:10.37,2013-01-10 13:44:00,
2013-01-10 08:49:00,31.6,27.1,29.91,NNW,332,0.0,0.0,83,0.00,CLR,,0.00,WeatherDisplay:10.37,2013-01-10 13:49:00,
2013-01-10 08:54:00,31.8,27.0,29.91,NNW,332,0.0,0.0,82,0.00,CLR,,0.00,WeatherDisplay:10.37,2013-01-10 13:54:00,
2013-01-10 08:59:00,32.4,27.5,29.91,NNW,332,0.0,0.0,82,0.00,CLR,,0.00,WeatherDisplay:10.37,2013-01-10 13:59:00,
2013-01-10 09:04:00,32.7,27.5,29.91,NNW,332,0.0,0.0,81,0.00,CLR,,0.00,WeatherDisplay:10.37,2013-01-10 14:04:00,
2013-01-10 09:09:00,33.1,27.9,29.91,NNW,332,0.0,0.0,81,0.00,CLR,,0.00,WeatherDisplay:10.37,2013-01-10 14:09:00,
2013-01-10 09:14:00,33.4,28.2,29.91,NNW,332,0.0,0.0,81,0.00,CLR,,0.00,WeatherDisplay:10.37,2013-01-10 14:14:00,
2013-01-10 09:19:00,34.0,27.5,29.91,NNW,332,0.0,0.0,77,0.00,CLR,,0.00,WeatherDisplay:10.37,2013-01-10 14:19:00,
2013-01-10 09:24:00,34.5,27.4,29.91,NNW,332,0.0,0.0,75,0.00,CLR,,0.00,WeatherDisplay:10.37,2013-01-10 14:24:00,
2013-01-10 09:30:00,34.9,26.8,29.91,NNW,332,0.0,0.0,72,0.00,CLR,,0.00,WeatherDisplay:10.37,2013-01-10 14:30:00,
2013-01-10 09:35:00,35.4,25.2,29.91,NNW,332,0.0,0.0,66,0.00,CLR,,0.00,WeatherDisplay:10.37,2013-01-10 14:35:00,
2013-01-10 09:40:00,35.8,25.9,29.91,NNW,332,0.0,0.0,67,0.00,CLR,,0.00,WeatherDisplay:10.37,2013-01-10 14:40:00,
2013-01-10 09:45:00,36.5,24.7,29.91,NNW,332,0.0,0.0,62,0.00,CLR,,0.00,WeatherDisplay:10.37,2013-01-10 14:45:00,
2013-01-10 09:50:00,37.2,25.4,29.91,NNW,332,0.0,0.0,62,0.00,CLR,,0.00,WeatherDisplay:10.37,2013-01-10 14:50:00,
2013-01-10 09:55:00,37.9,25.7,29.91,NNW,332,0.0,0.0,61,0.00,CLR,,0.00,WeatherDisplay:10.37,2013-01-10 14:55:00,
2013-01-10 10:00:00,38.3,25.2,29.91,NNW,332,0.0,0.0,59,0.00,CLR,,0.00,WeatherDisplay:10.37,2013-01-10 15:00:00,
2013-01-10 10:05:00,38.5,24.1,29.91,NNW,332,0.0,0.0,56,0.00,CLR,,0.00,WeatherDisplay:10.37,2013-01-10 15:05:00,
2013-01-10 10:10:00,38.8,24.5,29.91,NNW,332,0.0,0.0,56,0.00,CLR,,0.00,WeatherDisplay:10.37,2013-01-10 15:10:00,
2013-01-10 10:15:00,39.0,24.6,29.91,NNW,332,0.0,0.0,56,0.00,CLR,,0.00,WeatherDisplay:10.37,2013-01-10 15:15:00,
2013-01-10 10:20:00,39.4,23.7,29.91,NNW,332,0.0,0.0,53,0.00,CLR,,0.00,WeatherDisplay:10.37,2013-01-10 15:20:00,
2013-01-10 10:25:00,40.1,24.3,29.91,NNW,332,0.0,0.0,53,0.00,CLR,,0.00,WeatherDisplay:10.37,2013-01-10 15:25:00,
2013-01-10 10:30:00,40.5,24.7,29.91,NNW,332,0.0,0.0,53,0.00,CLR,,0.00,WeatherDisplay:10.37,2013-01-10 15:30:00,
2013-01-10 10:35:00,40.8,25.0,29.91,NNW,332,0.0,0.0,53,0.00,CLR,,0.00,WeatherDisplay:10.37,2013-01-10 15:35:00,
2013-01-10 10:40:00,41.2,25.3,29.91,NNW,332,0.0,0.0,53,0.00,CLR,,0.00,WeatherDisplay:10.37,2013-01-10 15:40:00,
2013-01-10 10:45:00,41.2,25.3,29.91,NNW,332,0.0,0.0,53,0.00,CLR,,0.00,WeatherDisplay:10.37,2013-01-10 15:45:00,
2013-01-10 10:50:00,41.4,25.5,29.91,NNW,332,0.0,0.0,53,0.00,CLR,,0.00,WeatherDisplay:10.37,2013-01-10 15:50:00,
2013-01-10 10:55:00,41.5,25.7,29.91,NNW,332,0.0,0.0,53,0.00,CLR,,0.00,WeatherDisplay:10.37,2013-01-10 15:55:00,
2013-01-10 11:00:00,41.7,25.8,29.91,NNW,332,0.0,0.0,53,0.00,CLR,,0.00,WeatherDisplay:10.37,2013-01-10 16:00:00,
2013-01-10 11:05:00,41.5,25.7,29.91,NNW,332,0.0,0.0,53,0.00,CLR,,0.00,WeatherDisplay:10.37,2013-01-10 16:05:00,
2013-01-10 11:10:00,41.5,25.7,29.91,NNW,332,0.0,0.0,53,0.00,CLR,,0.00,WeatherDisplay:10.37,2013-01-10 16:10:00,
2013-01-10 11:15:00,41.7,25.8,29.91,NNW,332,0.0,0.0,53,0.00,CLR,,0.00,WeatherDisplay:10.37,2013-01-10 16:15:00,
2013-01-10 11:20:00,41.7,25.8,29.91,NNW,332,0.0,0.0,53,0.00,CLR,,0.00,WeatherDisplay:10.37,2013-01-10 16:20:00,
2013-01-10 11:25:00,41.9,26.0,29.91,NNW,336,0.0,0.0,53,0.00,CLR,,0.00,WeatherDisplay:10.37,2013-01-10 16:25:00,
2013-01-10 11:30:00,41.5,25.7,29.91,NNW,336,0.0,0.0,53,0.00,CLR,,0.00,WeatherDisplay:10.37,2013-01-10 16:30:00,
2013-01-10 11:35:00,42.1,26.2,29.91,NNW,336,0.0,0.0,53,0.00,CLR,,0.00,WeatherDisplay:10.37,2013-01-10 16:35:00,
2013-01-10 11:40:00,42.4,26.5,29.91,NNW,336,0.0,0.0,53,0.00,CLR,,0.00,WeatherDisplay:10.37,2013-01-10 16:40:00,
2013-01-10 11:45:00,43.2,27.2,29.91,NNW,336,0.0,0.0,53,0.00,CLR,,0.00,WeatherDisplay:10.37,2013-01-10 16:45:00,
2013-01-10 11:50:00,43.7,27.7,29.91,NNW,336,0.0,0.0,53,0.00,CLR,,0.00,WeatherDisplay:10.37,2013-01-10 16:50:00,
2013-01-10 11:55:00,43.7,27.7,29.91,NNW,336,0.0,0.0,53,0.00,CLR,,0.00,WeatherDisplay:10.37,2013-01-10 16:55:00,
2013-01-10 12:00:00,44.1,28.0,29.91,NNW,336,0.0,0.0,53,0.00,CLR,,0.00,WeatherDisplay:10.37,2013-01-10 17:00:00,
2013-01-10 12:05:00,44.8,28.2,29.91,NW,311,3.5,3.5,52,0.00,CLR,,0.00,WeatherDisplay:10.37,2013-01-10 17:05:00,
2013-01-10 12:10:00,43.3,27.3,29.91,NW,311,2.3,3.1,53,0.00,CLR,,0.00,WeatherDisplay:10.37,2013-01-10 17:10:00,
2013-01-10 12:15:00,44.8,28.2,29.91,NW,311,2.3,3.1,52,0.00,CLR,,0.00,WeatherDisplay:10.37,2013-01-10 17:15:00,
2013-01-10 12:20:00,45.0,28.4,29.91,NNW,340,2.3,2.3,52,0.00,CLR,,0.00,WeatherDisplay:10.37,2013-01-10 17:20:00,
2013-01-10 12:25:00,45.3,28.7,29.91,NNW,343,0.0,2.2,52,0.00,CLR,,0.00,WeatherDisplay:10.37,2013-01-10 17:25:00,
2013-01-10 12:30:00,46.0,29.4,29.91,NNW,343,0.0,2.2,52,0.00,CLR,,0.00,WeatherDisplay:10.37,2013-01-10 17:30:00,
2013-01-10 12:35:00,46.0,29.4,29.91,NNE,30,0.0,2.7,52,0.00,CLR,,0.00,WeatherDisplay:10.37,2013-01-10 17:35:00,
2013-01-10 12:40:00,46.4,29.7,29.91,NW,305,2.3,0.0,52,0.00,CLR,,0.00,WeatherDisplay:10.37,2013-01-10 17:40:00,
2013-01-10 12:45:00,46.2,29.5,29.91,NNE,12,0.0,0.0,52,0.00,CLR,,0.00,WeatherDisplay:10.37,2013-01-10 17:45:00,
2013-01-10 12:50:00,45.7,29.0,29.91,NNE,12,0.0,0.0,52,0.00,CLR,,0.00,WeatherDisplay:10.37,2013-01-10 17:50:00,
2013-01-10 12:55:00,46.6,29.9,29.91,NNE,12,0.0,0.0,52,0.00,CLR,,0.00,WeatherDisplay:10.37,2013-01-10 17:55:00,
2013-01-10 13:00:00,46.9,30.2,29.91,WNW,297,0.0,0.0,52,0.00,CLR,,0.00,WeatherDisplay:10.37,2013-01-10 18:00:00,
2013-01-10 13:05:00,46.8,30.0,29.91,WNW,297,0.0,0.0,52,0.00,CLR,,0.00,WeatherDisplay:10.37,2013-01-10 18:05:00,
2013-01-10 13:10:00,46.6,29.9,29.91,WNW,297,0.0,0.0,52,0.00,CLR,,0.00,WeatherDisplay:10.37,2013-01-10 18:10:00,
2013-01-10 13:15:00,45.5,28.9,29.91,East,92,0.0,0.0,52,0.00,CLR,,0.00,WeatherDisplay:10.37,2013-01-10 18:15:00,
2013-01-10 13:20:00,44.4,27.9,29.91,ENE,69,0.0,0.0,52,0.00,CLR,,0.00,WeatherDisplay:10.37,2013-01-10 18:20:00,
2013-01-10 13:25:00,44.4,27.9,29.91,WNW,303,0.0,0.0,52,0.00,CLR,,0.00,WeatherDisplay:10.37,2013-01-10 18:25:00,
2013-01-10 13:30:00,44.2,27.7,29.91,WNW,303,0.0,0.0,52,0.00,CLR,,0.00,WeatherDisplay:10.37,2013-01-10 18:30:00,
2013-01-10 13:35:00,44.1,28.0,29.91,North,353,0.0,0.0,53,0.00,CLR,,0.00,WeatherDisplay:10.37,2013-01-10 18:35:00,
2013-01-10 13:40:00,43.9,27.8,29.91,North,353,0.0,0.0,53,0.00,CLR,,0.00,WeatherDisplay:10.37,2013-01-10 18:40:00,
2013-01-10 13:45:00,43.9,27.8,29.91,North,353,0.0,0.0,53,0.00,CLR,,0.00,WeatherDisplay:10.37,2013-01-10 18:45:00,
2013-01-10 13:50:00,44.4,27.9,29.91,North,353,0.0,0.0,52,0.00,CLR,,0.00,WeatherDisplay:10.37,2013-01-10 18:50:00,
2013-01-10 13:55:00,45.1,28.5,29.91,North,353,0.0,0.0,52,0.00,CLR,,0.00,WeatherDisplay:10.37,2013-01-10 18:55:00,
2013-01-10 14:00:00,45.1,28.5,29.91,NE,50,0.0,0.0,52,0.00,CLR,,0.00,WeatherDisplay:10.37,2013-01-10 19:00:00,
2013-01-10 14:05:00,45.0,28.4,29.91,NW,318,0.0,0.0,52,0.00,CLR,,0.00,WeatherDisplay:10.37,2013-01-10 19:05:00,
2013-01-10 14:10:00,44.4,27.9,29.91,North,353,2.3,0.0,52,0.00,CLR,,0.00,WeatherDisplay:10.37,2013-01-10 19:10:00,
2013-01-10 14:15:00,44.8,28.2,29.91,North,353,0.0,0.0,52,0.00,CLR,,0.00,WeatherDisplay:10.37,2013-01-10 19:15:00,
2013-01-10 14:20:00,45.0,28.4,29.91,NW,325,3.5,0.0,52,0.00,CLR,,0.00,WeatherDisplay:10.37,2013-01-10 19:20:00,
2013-01-10 14:25:00,45.0,28.4,29.91,NW,308,3.5,0.0,52,0.00,CLR,,0.00,WeatherDisplay:10.37,2013-01-10 19:25:00,
2013-01-10 14:30:00,45.5,28.9,29.91,NW,322,0.0,0.0,52,0.00,CLR,,0.00,WeatherDisplay:10.37,2013-01-10 19:30:00,
2013-01-10 14:35:00,45.3,28.7,29.91,NNW,328,3.5,3.5,52,0.00,CLR,,0.00,WeatherDisplay:10.37,2013-01-10 19:35:00,
2013-01-10 14:40:00,45.5,28.9,29.91,WNW,288,0.0,0.0,52,0.00,CLR,,0.00,WeatherDisplay:10.37,2013-01-10 19:40:00,
2013-01-10 14:45:00,45.1,28.5,29.91,WNW,288,0.0,0.0,52,0.00,CLR,,0.00,WeatherDisplay:10.37,2013-01-10 19:45:00,
2013-01-10 14:50:00,44.6,28.0,29.91,WNW,288,0.0,0.0,52,0.00,CLR,,0.00,WeatherDisplay:10.37,2013-01-10 19:50:00,
2013-01-10 14:55:00,44.2,27.7,29.91,WNW,288,0.0,0.0,52,0.00,CLR,,0.00,WeatherDisplay:10.37,2013-01-10 19:55:00,
2013-01-10 15:00:00,43.7,27.7,29.91,WNW,288,0.0,0.0,53,0.00,CLR,,0.00,WeatherDisplay:10.37,2013-01-10 20:00:00,
2013-01-10 15:05:00,43.3,27.3,29.91,WNW,301,2.3,0.0,53,0.00,CLR,,0.00,WeatherDisplay:10.37,2013-01-10 20:05:00,
2013-01-10 15:10:00,43.2,27.2,29.91,WNW,301,2.3,0.0,53,0.00,CLR,,0.00,WeatherDisplay:10.37,2013-01-10 20:10:00,
2013-01-10 15:15:00,42.8,26.8,29.91,WNW,301,2.3,0.0,53,0.00,CLR,,0.00,WeatherDisplay:10.37,2013-01-10 20:15:00,
2013-01-10 15:20:00,42.6,26.7,29.91,WNW,301,2.3,0.0,53,0.00,CLR,,0.00,WeatherDisplay:10.37,2013-01-10 20:20:00,
2013-01-10 15:25:00,42.4,26.5,29.91,WNW,301,2.3,0.0,53,0.00,CLR,,0.00,WeatherDisplay:10.37,2013-01-10 20:25:00,
2013-01-10 15:30:00,42.4,26.5,29.91,WNW,301,2.3,0.0,53,0.00,CLR,,0.00,WeatherDisplay:10.37,2013-01-10 20:30:00,
2013-01-10 15:35:00,42.6,26.7,29.91,WNW,301,2.3,0.0,53,0.00,CLR,,0.00,WeatherDisplay:10.37,2013-01-10 20:35:00,
2013-01-10 15:40:00,42.6,26.7,29.91,WNW,301,2.3,0.0,53,0.00,CLR,,0.00,WeatherDisplay:10.37,2013-01-10 20:40:00,
2013-01-10 15:45:00,42.4,26.5,29.91,WNW,301,2.3,0.0,53,0.00,CLR,,0.00,WeatherDisplay:10.37,2013-01-10 20:45:00,
2013-01-10 15:50:00,42.1,26.2,29.91,WNW,301,2.3,0.0,53,0.00,CLR,,0.00,WeatherDisplay:10.37,2013-01-10 20:50:00,
2013-01-10 15:55:00,41.5,25.7,29.91,WNW,301,2.3,0.0,53,0.00,CLR,,0.00,WeatherDisplay:10.37,2013-01-10 20:55:00,
2013-01-10 16:00:00,41.2,25.3,29.91,WNW,301,2.3,0.0,53,0.00,CLR,,0.00,WeatherDisplay:10.37,2013-01-10 21:00:00,
2013-01-10 16:05:00,40.6,24.8,29.91,WNW,301,2.3,0.0,53,0.00,CLR,,0.00,WeatherDisplay:10.37,2013-01-10 21:05:00,
2013-01-10 16:10:00,39.7,24.0,29.91,WNW,301,2.3,0.0,53,0.00,CLR,,0.00,WeatherDisplay:10.37,2013-01-10 21:10:00,
2013-01-10 16:16:00,39.4,25.0,29.91,WNW,301,2.3,0.0,56,0.00,CLR,,0.00,WeatherDisplay:10.37,2013-01-10 21:16:00,
2013-01-10 16:21:00,38.8,24.5,29.91,WNW,301,2.3,0.0,56,0.00,CLR,,0.00,WeatherDisplay:10.37,2013-01-10 21:21:00,
2013-01-10 16:26:00,38.5,25.4,29.91,WNW,301,2.3,0.0,59,0.00,CLR,,0.00,WeatherDisplay:10.37,2013-01-10 21:26:00,
2013-01-10 16:31:00,38.3,25.2,29.91,WNW,301,2.3,0.0,59,0.00,CLR,,0.00,WeatherDisplay:10.37,2013-01-10 21:31:00,
2013-01-10 16:36:00,38.1,25.0,29.91,WNW,301,2.3,0.0,59,0.00,CLR,,0.00,WeatherDisplay:10.37,2013-01-10 21:36:00,
2013-01-10 16:41:00,37.6,23.3,29.91,WNW,301,2.3,0.0,56,0.00,CLR,,0.00,WeatherDisplay:10.37,2013-01-10 21:41:00,
2013-01-10 16:46:00,37.0,22.8,29.91,WNW,301,2.3,0.0,56,0.00,CLR,,0.00,WeatherDisplay:10.37,2013-01-10 21:46:00,
2013-01-10 16:51:00,36.7,24.9,29.91,WNW,301,2.3,0.0,62,0.00,CLR,,0.00,WeatherDisplay:10.37,2013-01-10 21:51:00,
2013-01-10 16:56:00,36.3,24.5,29.91,WNW,301,2.3,0.0,62,0.00,CLR,,0.00,WeatherDisplay:10.37,2013-01-10 21:56:00,
2013-01-10 17:01:00,36.0,24.2,29.91,WNW,301,2.3,0.0,62,0.00,CLR,,0.00,WeatherDisplay:10.37,2013-01-10 22:01:00,
2013-01-10 17:06:00,35.6,23.9,29.91,WNW,301,2.3,0.0,62,0.00,CLR,,0.00,WeatherDisplay:10.37,2013-01-10 22:06:00,
2013-01-10 17:11:00,35.4,23.7,29.91,WNW,302,0.0,0.0,62,0.00,CLR,,0.00,WeatherDisplay:10.37,2013-01-10 22:11:00,
2013-01-10 17:16:00,35.2,23.9,29.91,WNW,302,0.0,0.0,63,0.00,CLR,,0.00,WeatherDisplay:10.37,2013-01-10 22:16:00,
2013-01-10 17:21:00,35.1,23.7,29.91,WNW,302,0.0,0.0,63,0.00,CLR,,0.00,WeatherDisplay:10.37,2013-01-10 22:21:00,
2013-01-10 17:26:00,34.7,23.0,29.91,WNW,302,0.0,0.0,62,0.00,CLR,,0.00,WeatherDisplay:10.37,2013-01-10 22:26:00,
2013-01-10 17:31:00,34.5,24.0,29.91,WNW,302,0.0,0.0,65,0.00,CLR,,0.00,WeatherDisplay:10.37,2013-01-10 22:31:00,
2013-01-10 17:36:00,34.5,23.6,29.91,WNW,302,0.0,0.0,64,0.00,CLR,,0.00,WeatherDisplay:10.37,2013-01-10 22:36:00,
2013-01-10 17:41:00,34.3,23.4,29.91,WNW,302,0.0,0.0,64,0.00,CLR,,0.00,WeatherDisplay:10.37,2013-01-10 22:41:00,
2013-01-10 17:46:00,34.2,23.6,29.91,WNW,302,0.0,0.0,65,0.00,CLR,,0.00,WeatherDisplay:10.37,2013-01-10 22:46:00,
2013-01-10 17:51:00,34.0,23.8,29.91,WNW,302,0.0,0.0,66,0.00,CLR,,0.00,WeatherDisplay:10.37,2013-01-10 22:51:00,
2013-01-10 17:56:00,34.0,23.8,29.91,WNW,302,0.0,0.0,66,0.00,CLR,,0.00,WeatherDisplay:10.37,2013-01-10 22:56:00,
2013-01-10 18:01:00,34.0,23.8,29.91,WNW,302,0.0,0.0,66,0.00,CLR,,0.00,WeatherDisplay:10.37,2013-01-10 23:01:00,
2013-01-10 18:06:00,34.0,23.8,29.91,WNW,302,0.0,0.0,66,0.00,CLR,,0.00,WeatherDisplay:10.37,2013-01-10 23:06:00,
2013-01-10 18:12:00,33.8,25.4,29.91,WNW,302,0.0,0.0,71,0.00,CLR,,0.00,WeatherDisplay:10.37,2013-01-10 23:12:00,
2013-01-10 18:17:00,33.6,24.9,29.91,WNW,302,0.0,0.0,70,0.00,CLR,,0.00,WeatherDisplay:10.37,2013-01-10 23:17:00,
2013-01-10 18:22:00,33.6,25.2,29.91,WNW,302,0.0,0.0,71,0.00,CLR,,0.00,WeatherDisplay:10.37,2013-01-10 23:22:00,
2013-01-10 18:27:00,33.4,25.0,29.91,WNW,302,0.0,0.0,71,0.00,CLR,,0.00,WeatherDisplay:10.37,2013-01-10 23:27:00,
2013-01-10 18:32:00,33.4,25.4,29.91,WNW,302,0.0,0.0,72,0.00,CLR,,0.00,WeatherDisplay:10.37,2013-01-10 23:32:00,
2013-01-10 18:37:00,33.3,25.5,29.91,WNW,302,0.0,0.0,73,0.00,CLR,,0.00,WeatherDisplay:10.37,2013-01-10 23:37:00,
2013-01-10 18:42:00,33.3,25.5,29.91,WNW,302,0.0,0.0,73,0.00,CLR,,0.00,WeatherDisplay:10.37,2013-01-10 23:42:00,
2013-01-10 18:47:00,33.1,25.4,29.91,WNW,302,0.0,0.0,73,0.00,CLR,,0.00,WeatherDisplay:10.37,2013-01-10 23:47:00,
2013-01-10 18:52:00,32.9,25.2,29.91,WNW,302,0.0,0.0,73,0.00,CLR,,0.00,WeatherDisplay:10.37,2013-01-10 23:52:00,
2013-01-10 18:57:00,32.9,25.5,29.91,WNW,302,0.0,0.0,74,0.00,CLR,,0.00,WeatherDisplay:10.37,2013-01-10 23:57:00,
2013-01-10 19:02:00,32.7,25.3,29.91,WNW,302,0.0,0.0,74,0.00,CLR,,0.00,WeatherDisplay:10.37,2013-01-11 00:02:00,
2013-01-10 19:07:00,32.5,25.5,29.91,WNW,302,0.0,0.0,75,0.00,CLR,,0.00,WeatherDisplay:10.37,2013-01-11 00:07:00,
2013-01-10 19:12:00,32.5,25.5,29.91,WNW,302,0.0,0.0,75,0.00,CLR,,0.00,WeatherDisplay:10.37,2013-01-11 00:12:00,
2013-01-10 19:17:00,32.5,25.5,29.91,WNW,302,0.0,0.0,75,0.00,CLR,,0.00,WeatherDisplay:10.37,2013-01-11 00:17:00,
2013-01-10 19:22:00,32.5,25.8,29.91,WNW,302,0.0,0.0,76,0.00,CLR,,0.00,WeatherDisplay:10.37,2013-01-11 00:22:00,
2013-01-10 19:27:00,32.5,25.8,29.91,WNW,302,0.0,0.0,76,0.00,CLR,,0.00,WeatherDisplay:10.37,2013-01-11 00:27:00,
2013-01-10 19:32:00,32.5,26.1,29.91,WNW,302,0.0,0.0,77,0.00,CLR,,0.00,WeatherDisplay:10.37,2013-01-11 00:32:00,
2013-01-10 19:37:00,32.5,26.1,29.91,WNW,302,0.0,0.0,77,0.00,CLR,,0.00,WeatherDisplay:10.37,2013-01-11 00:37:00,
2013-01-10 19:42:00,32.5,26.1,29.91,WNW,302,0.0,0.0,77,0.00,CLR,,0.00,WeatherDisplay:10.37,2013-01-11 00:42:00,
2013-01-10 19:47:00,32.4,25.6,29.91,WNW,302,0.0,0.0,76,0.00,CLR,,0.00,WeatherDisplay:10.37,2013-01-11 00:47:00,
2013-01-10 19:52:00,32.5,26.1,29.91,WNW,302,0.0,0.0,77,0.00,CLR,,0.00,WeatherDisplay:10.37,2013-01-11 00:52:00,
2013-01-10 19:57:00,32.4,26.0,29.91,WNW,302,0.0,0.0,77,0.00,CLR,,0.00,WeatherDisplay:10.37,2013-01-11 00:57:00,
2013-01-10 20:02:00,32.4,26.0,29.91,WNW,302,0.0,0.0,77,0.00,CLR,,0.00,WeatherDisplay:10.37,2013-01-11 01:02:00,
2013-01-10 20:07:00,32.5,26.4,29.91,WNW,302,0.0,0.0,78,0.00,CLR,,0.00,WeatherDisplay:10.37,2013-01-11 01:07:00,
2013-01-10 20:12:00,32.5,26.7,29.91,WNW,302,0.0,0.0,79,0.00,CLR,,0.00,WeatherDisplay:10.37,2013-01-11 01:12:00,
2013-01-10 20:17:00,32.5,26.4,29.91,WNW,302,0.0,0.0,78,0.00,CLR,,0.00,WeatherDisplay:10.37,2013-01-11 01:17:00,
2013-01-10 20:23:00,32.5,26.4,29.91,WNW,302,0.0,0.0,78,0.00,CLR,,0.00,WeatherDisplay:10.37,2013-01-11 01:23:00,
2013-01-10 20:28:00,32.7,26.6,29.91,WNW,302,0.0,0.0,78,0.00,CLR,,0.00,WeatherDisplay:10.37,2013-01-11 01:28:00,
2013-01-10 20:33:00,32.5,26.4,29.91,WNW,302,0.0,0.0,78,0.00,CLR,,0.00,WeatherDisplay:10.37,2013-01-11 01:33:00,
2013-01-10 20:38:00,32.5,26.1,29.91,WNW,302,0.0,0.0,77,0.00,CLR,,0.00,WeatherDisplay:10.37,2013-01-11 01:38:00,
2013-01-10 20:43:00,32.7,26.0,29.91,WNW,302,0.0,0.0,76,0.00,CLR,,0.00,WeatherDisplay:10.37,2013-01-11 01:43:00,
2013-01-10 20:48:00,32.7,26.0,29.91,WNW,302,0.0,0.0,76,0.00,CLR,,0.00,WeatherDisplay:10.37,2013-01-11 01:48:00,
2013-01-10 20:53:00,32.9,26.2,29.91,WNW,302,0.0,0.0,76,0.00,CLR,,0.00,WeatherDisplay:10.37,2013-01-11 01:53:00,
2013-01-10 20:58:00,32.7,26.0,29.91,WNW,302,0.0,0.0,76,0.00,CLR,,0.00,WeatherDisplay:10.37,2013-01-11 01:58:00,
2013-01-10 21:03:00,32.7,25.7,29.91,WNW,302,0.0,0.0,75,0.00,CLR,,0.00,WeatherDisplay:10.37,2013-01-11 02:03:00,
2013-01-10 21:08:00,32.7,25.7,29.91,WNW,302,0.0,0.0,75,0.00,CLR,,0.00,WeatherDisplay:10.37,2013-01-11 02:08:00,
2013-01-10 21:13:00,32.9,25.8,29.91,WNW,302,0.0,0.0,75,0.00,CLR,,0.00,WeatherDisplay:10.37,2013-01-11 02:13:00,
2013-01-10 21:18:00,32.7,25.3,29.91,WNW,302,0.0,0.0,74,0.00,CLR,,0.00,WeatherDisplay:10.37,2013-01-11 02:18:00,
2013-01-10 21:23:00,32.7,25.3,29.91,WNW,302,0.0,0.0,74,0.00,CLR,,0.00,WeatherDisplay:10.37,2013-01-11 02:23:00,
2013-01-10 21:28:00,32.7,25.3,29.91,WNW,302,0.0,0.0,74,0.00,CLR,,0.00,WeatherDisplay:10.37,2013-01-11 02:28:00,
2013-01-10 21:33:00,32.7,25.3,29.91,WNW,302,0.0,0.0,74,0.00,CLR,,0.00,WeatherDisplay:10.37,2013-01-11 02:33:00,
2013-01-10 21:39:00,32.7,25.3,29.91,WNW,302,0.0,0.0,74,0.00,CLR,,0.00,WeatherDisplay:10.37,2013-01-11 02:39:00,
2013-01-10 21:44:00,32.7,25.3,29.91,WNW,302,0.0,0.0,74,0.00,CLR,,0.00,WeatherDisplay:10.37,2013-01-11 02:44:00,
2013-01-10 21:49:00,32.7,25.7,29.91,WNW,302,0.0,0.0,75,0.00,CLR,,0.00,WeatherDisplay:10.37,2013-01-11 02:49:00,
2013-01-10 21:54:00,32.5,25.5,29.91,WNW,302,0.0,0.0,75,0.00,CLR,,0.00,WeatherDisplay:10.37,2013-01-11 02:54:00,
2013-01-10 21:59:00,32.5,25.5,29.91,WNW,302,0.0,0.0,75,0.00,CLR,,0.00,WeatherDisplay:10.37,2013-01-11 02:59:00,
2013-01-10 22:04:00,32.5,25.2,29.91,WNW,302,0.0,0.0,74,0.00,CLR,,0.00,WeatherDisplay:10.37,2013-01-11 03:04:00,
2013-01-10 22:09:00,32.7,25.0,29.91,WNW,302,0.0,0.0,73,0.00,CLR,,0.00,WeatherDisplay:10.37,2013-01-11 03:09:00,
2013-01-10 22:14:00,32.7,25.0,29.91,WNW,302,0.0,0.0,73,0.00,CLR,,0.00,WeatherDisplay:10.37,2013-01-11 03:14:00,
2013-01-10 22:19:00,33.1,25.4,29.91,WNW,302,0.0,0.0,73,0.00,CLR,,0.00,WeatherDisplay:10.37,2013-01-11 03:19:00,
2013-01-10 22:24:00,33.6,25.2,29.91,WNW,302,0.0,0.0,71,0.00,CLR,,0.00,WeatherDisplay:10.37,2013-01-11 03:24:00,
2013-01-10 22:29:00,33.4,24.7,29.91,WNW,302,0.0,0.0,70,0.00,CLR,,0.00,WeatherDisplay:10.37,2013-01-11 03:29:00,
2013-01-10 22:34:00,33.4,24.7,29.91,WNW,302,0.0,0.0,70,0.00,CLR,,0.00,WeatherDisplay:10.37,2013-01-11 03:34:00,
2013-01-10 22:39:00,33.4,24.4,29.91,WNW,302,0.0,0.0,69,0.00,CLR,,0.00,WeatherDisplay:10.37,2013-01-11 03:39:00,
2013-01-10 22:44:00,33.6,24.2,29.91,WNW,302,0.0,0.0,68,0.00,CLR,,0.00,WeatherDisplay:10.37,2013-01-11 03:44:00,
2013-01-10 22:49:00,33.8,24.4,29.91,WNW,302,0.0,0.0,68,0.00,CLR,,0.00,WeatherDisplay:10.37,2013-01-11 03:49:00,
2013-01-10 22:54:00,34.0,23.8,29.91,WNW,302,0.0,0.0,66,0.00,CLR,,0.00,WeatherDisplay:10.37,2013-01-11 03:54:00,
2013-01-10 22:59:00,34.0,23.8,29.91,WNW,302,0.0,0.0,66,0.00,CLR,,0.00,WeatherDisplay:10.37,2013-01-11 03:59:00,
2013-01-10 23:05:00,34.2,24.0,29.91,WNW,302,0.0,0.0,66,0.00,CLR,,0.00,WeatherDisplay:10.37,2013-01-11 04:05:00,
2013-01-10 23:10:00,34.3,23.8,29.91,WNW,302,0.0,0.0,65,0.00,CLR,,0.00,WeatherDisplay:10.37,2013-01-11 04:10:00,
2013-01-10 23:15:00,34.3,23.8,29.91,WNW,302,0.0,0.0,65,0.00,CLR,,0.00,WeatherDisplay:10.37,2013-01-11 04:15:00,
2013-01-10 23:20:00,34.3,23.8,29.91,WNW,302,0.0,0.0,65,0.00,CLR,,0.00,WeatherDisplay:10.37,2013-01-11 04:20:00,
2013-01-10 23:25:00,34.2,23.6,29.91,WNW,302,0.0,0.0,65,0.00,CLR,,0.00,WeatherDisplay:10.37,2013-01-11 04:25:00,
2013-01-10 23:30:00,34.2,23.6,29.91,WNW,302,0.0,0.0,65,0.00,CLR,,0.00,WeatherDisplay:10.37,2013-01-11 04:30:00,
2013-01-10 23:35:00,34.2,23.6,29.91,WNW,302,0.0,0.0,65,0.00,CLR,,0.00,WeatherDisplay:10.37,2013-01-11 04:35:00,
2013-01-10 23:40:00,34.3,23.4,29.91,WNW,302,0.0,0.0,64,0.00,CLR,,0.00,WeatherDisplay:10.37,2013-01-11 04:40:00,
2013-01-10 23:45:00,34.2,23.2,29.91,WNW,302,0.0,0.0,64,0.00,CLR,,0.00,WeatherDisplay:10.37,2013-01-11 04:45:00,
2013-01-10 23:50:00,34.5,23.6,29.91,WNW,302,0.0,0.0,64,0.00,CLR,,0.00,WeatherDisplay:10.37,2013-01-11 04:50:00,
2013-01-10 23:55:00,34.3,23.4,29.91,WNW,302,0.0,0.0,64,0.00,CLR,,0.00,WeatherDisplay:10.37,2013-01-11 04:55:00,